Time;durP1;ratioP1;P1;durP2;ratioP2;P2;SDS_P1;SDS_P2;PMS_P1;PMS_P2;Temp;Humidity;BMP_temperature;BMP_pressure;BME280_temperature;BME280_humidity;BME280_pressure;Samples;Min_cycle;Max_cycle;Signal;HPM_P1;HPM_P2
2024/03/15 00:02:15;;;;;;;5.90;4.50;;;11.40;99.90;;;;;;4977666;28;20508;-69
2024/03/15 00:04:41;;;;;;;6.30;4.60;;;11.40;99.90;;;;;;4978982;28;20204;-72
2024/03/15 00:07:07;;;;;;;6.80;4.70;;;11.40;99.90;;;;;;4976935;28;20232;-72
2024/03/15 00:09:33;;;;;;;6.17;4.43;;;11.40;99.90;;;;;;4977179;28;20404;-69
2024/03/15 00:12:02;;;;;;;7.43;4.17;;;11.50;99.90;;;;;;4977246;28;20433;-70
2024/03/15 00:14:27;;;;;;;6.60;4.30;;;11.50;99.90;;;;;;4980962;28;20210;-72
2024/03/15 00:16:54;;;;;;;4.20;3.77;;;11.50;99.90;;;;;;4982402;28;20451;-74
2024/03/15 00:19:20;;;;;;;8.13;4.50;;;11.50;99.90;;;;;;4982283;28;20242;-70
2024/03/15 00:21:46;;;;;;;4.20;3.80;;;11.50;99.90;;;;;;4979599;28;20435;-71
2024/03/15 00:24:15;;;;;;;4.83;4.40;;;11.50;99.90;;;;;;4981217;28;20428;-69
2024/03/15 00:26:42;;;;;;;4.67;4.20;;;11.50;99.90;;;;;;4981104;28;20517;-69
2024/03/15 00:29:08;;;;;;;4.23;3.80;;;11.50;99.90;;;;;;4981184;28;20939;-69
2024/03/15 00:31:34;;;;;;;5.37;4.40;;;11.50;99.90;;;;;;4980489;28;20704;-70
2024/03/15 00:34:00;;;;;;;5.70;4.40;;;11.50;99.90;;;;;;4982485;28;20425;-72
2024/03/15 00:36:26;;;;;;;5.13;4.53;;;11.50;99.90;;;;;;4982045;28;20443;-70
2024/03/15 00:38:55;;;;;;;5.43;4.93;;;11.50;99.90;;;;;;4980445;28;20333;-71
2024/03/15 00:41:22;;;;;;;4.40;3.97;;;11.50;99.90;;;;;;4980659;28;20424;-70
2024/03/15 00:43:48;;;;;;;4.80;4.13;;;11.50;99.90;;;;;;4980832;28;20465;-72
2024/03/15 00:46:17;;;;;;;6.00;3.70;;;11.50;99.90;;;;;;4986906;28;20501;-68
2024/03/15 00:48:43;;;;;;;7.50;4.83;;;11.40;99.90;;;;;;4980764;28;20416;-71
2024/03/15 00:51:09;;;;;;;6.43;4.90;;;11.40;99.90;;;;;;4979884;28;20415;-71
2024/03/15 00:53:38;;;;;;;4.40;4.00;;;11.30;99.90;;;;;;4978077;28;20423;-72
2024/03/15 00:56:04;;;;;;;5.17;4.67;;;11.30;99.90;;;;;;4979970;28;20450;-69
2024/03/15 00:58:30;;;;;;;5.23;4.17;;;11.20;99.90;;;;;;4978286;28;20433;-69
2024/03/15 01:00:57;;;;;;;5.37;4.43;;;11.20;99.90;;;;;;4979864;28;20565;-69
2024/03/15 01:03:25;;;;;;;5.47;4.47;;;11.20;99.90;;;;;;4979384;28;20198;-73
2024/03/15 01:05:51;;;;;;;5.70;4.70;;;11.10;99.90;;;;;;4975226;28;20478;-71
2024/03/15 01:08:18;;;;;;;7.03;4.90;;;11.10;99.90;;;;;;4979918;28;20407;-69
2024/03/15 01:10:47;;;;;;;5.90;5.30;;;11.00;99.90;;;;;;4979430;28;20260;-68
2024/03/15 01:13:13;;;;;;;9.77;5.27;;;11.00;99.90;;;;;;4977042;28;20973;-68
2024/03/15 01:15:39;;;;;;;6.03;4.20;;;11.00;99.90;;;;;;4976757;28;20428;-69
2024/03/15 01:18:05;;;;;;;5.60;4.20;;;11.00;99.90;;;;;;4977351;28;20518;-67
2024/03/15 01:20:32;;;;;;;5.07;4.57;;;11.10;99.90;;;;;;4973986;28;20487;-69
2024/03/15 01:22:58;;;;;;;7.63;4.87;;;11.10;99.90;;;;;;4975876;28;20196;-67
2024/03/15 01:25:23;;;;;;;4.87;4.47;;;11.20;99.90;;;;;;4976293;28;20410;-69
2024/03/15 01:27:49;;;;;;;5.40;4.33;;;11.20;99.90;;;;;;4976727;28;20616;-69
2024/03/15 01:30:14;;;;;;;6.20;4.77;;;11.30;99.90;;;;;;4976750;28;20189;-69
2024/03/15 01:32:40;;;;;;;6.23;4.27;;;11.40;99.90;;;;;;4976757;28;20277;-68
2024/03/15 01:35:06;;;;;;;6.87;4.10;;;11.40;99.90;;;;;;4973375;28;20265;-69
2024/03/15 01:37:32;;;;;;;7.20;4.50;;;11.40;99.90;;;;;;4976557;28;20213;-69
2024/03/15 01:40:00;;;;;;;6.30;4.50;;;11.50;99.90;;;;;;4976216;28;20432;-68
2024/03/15 01:42:26;;;;;;;4.00;3.63;;;11.50;99.90;;;;;;4975826;28;20763;-69
2024/03/15 01:44:53;;;;;;;5.63;3.90;;;11.50;99.90;;;;;;4976441;28;20485;-68
2024/03/15 01:47:26;;;;;;;4.40;3.87;;;11.40;99.90;;;;;;4976503;28;20220;-69
2024/03/15 01:49:56;;;;;;;6.10;4.87;;;11.40;99.90;;;;;;4974028;28;20454;-69
2024/03/15 01:52:24;;;;;;;4.70;4.20;;;11.40;99.90;;;;;;4975988;28;20815;-69
2024/03/15 01:54:50;;;;;;;5.10;4.47;;;11.40;99.90;;;;;;4975854;28;20495;-70
2024/03/15 01:57:17;;;;;;;4.93;4.27;;;11.40;99.90;;;;;;4975739;28;20495;-68
2024/03/15 01:59:43;;;;;;;5.20;4.70;;;11.40;99.90;;;;;;4976007;28;20857;-68
2024/03/15 02:02:09;;;;;;;7.03;4.40;;;11.30;99.90;;;;;;4976274;28;20438;-69
2024/03/15 02:04:38;;;;;;;7.20;4.67;;;11.30;99.90;;;;;;4974849;28;20732;-69
2024/03/15 02:07:04;;;;;;;5.23;4.40;;;11.30;99.90;;;;;;4975363;28;20572;-68
2024/03/15 02:09:30;;;;;;;4.97;4.37;;;11.20;99.90;;;;;;4975725;28;20416;-69
2024/03/15 02:11:56;;;;;;;6.30;4.50;;;11.20;99.90;;;;;;4975147;28;20276;-69
2024/03/15 02:14:22;;;;;;;4.13;3.73;;;11.10;99.90;;;;;;4975681;28;20410;-69
2024/03/15 02:16:48;;;;;;;4.90;4.10;;;11.10;99.90;;;;;;4975391;28;20452;-68
2024/03/15 02:19:14;;;;;;;6.30;4.70;;;11.00;99.90;;;;;;4975506;28;20391;-70
2024/03/15 02:21:45;;;;;;;4.97;3.77;;;11.00;99.90;;;;;;4976297;28;20988;-70
2024/03/15 02:24:12;;;;;;;4.50;3.83;;;10.90;99.90;;;;;;4983973;28;20232;-68
2024/03/15 02:26:39;;;;;;;4.33;3.90;;;11.00;99.90;;;;;;4980452;28;20471;-68
2024/03/15 02:29:05;;;;;;;5.40;4.60;;;11.00;99.90;;;;;;4975609;28;20409;-69
2024/03/15 02:31:31;;;;;;;6.97;4.50;;;11.00;99.90;;;;;;4975479;28;20880;-67
2024/03/15 02:33:57;;;;;;;7.70;4.33;;;11.00;99.90;;;;;;4974738;28;20436;-68
2024/03/15 02:36:24;;;;;;;4.40;4.00;;;11.00;99.90;;;;;;4975288;28;20364;-70
2024/03/15 02:38:49;;;;;;;5.10;4.60;;;11.00;99.90;;;;;;4976304;28;20420;-70
2024/03/15 02:41:15;;;;;;;4.50;4.10;;;11.00;99.90;;;;;;4973720;28;20911;-69
2024/03/15 02:43:46;;;;;;;5.00;4.13;;;11.00;99.90;;;;;;4975280;28;20225;-69
2024/03/15 02:46:15;;;;;;;5.33;4.83;;;11.00;99.90;;;;;;4977149;28;20468;-68
2024/03/15 02:48:41;;;;;;;5.80;4.73;;;10.90;99.90;;;;;;4974916;28;20488;-69
2024/03/15 02:51:07;;;;;;;5.30;4.17;;;10.90;99.90;;;;;;4974919;28;20789;-68
2024/03/15 02:53:33;;;;;;;4.07;3.63;;;11.00;99.90;;;;;;4975043;28;20569;-68
2024/03/15 02:56:02;;;;;;;6.37;4.17;;;11.00;99.90;;;;;;4975055;28;20441;-69
2024/03/15 02:58:29;;;;;;;5.10;4.03;;;11.10;99.90;;;;;;4975080;28;20521;-68
2024/03/15 03:00:54;;;;;;;5.63;3.73;;;11.10;99.90;;;;;;4975566;28;20571;-69
2024/03/15 03:03:20;;;;;;;4.87;3.47;;;11.20;99.90;;;;;;4975469;28;20449;-68
2024/03/15 03:05:46;;;;;;;5.57;3.93;;;11.20;99.90;;;;;;4975270;28;20192;-67
2024/03/15 03:08:12;;;;;;;3.20;2.90;;;11.20;99.90;;;;;;4974681;28;20760;-67
2024/03/15 03:10:38;;;;;;;4.33;3.33;;;11.10;99.90;;;;;;4975140;28;20435;-68
2024/03/15 03:13:04;;;;;;;4.67;3.43;;;11.10;99.90;;;;;;4974648;28;20420;-68
2024/03/15 03:15:29;;;;;;;3.43;3.00;;;11.10;99.90;;;;;;4975271;28;20219;-68
2024/03/15 03:17:59;;;;;;;3.17;2.60;;;11.10;99.90;;;;;;4974818;28;20196;-69
2024/03/15 03:20:25;;;;;;;3.40;2.73;;;11.00;99.90;;;;;;4968584;28;20270;-69
2024/03/15 03:22:53;;;;;;;3.43;2.57;;;11.00;99.90;;;;;;4975221;28;20413;-68
2024/03/15 03:25:19;;;;;;;3.50;2.77;;;11.00;99.90;;;;;;4976537;28;20426;-69
2024/03/15 03:27:45;;;;;;;3.30;2.70;;;11.00;99.90;;;;;;4972458;28;20450;-68
2024/03/15 03:30:11;;;;;;;4.47;3.30;;;11.00;99.90;;;;;;4974337;28;20438;-68
2024/03/15 03:32:37;;;;;;;3.50;2.67;;;11.10;99.90;;;;;;4974780;28;20414;-68
2024/03/15 03:35:04;;;;;;;3.63;3.10;;;11.10;99.90;;;;;;4974571;28;20207;-68
2024/03/15 03:37:30;;;;;;;3.37;2.50;;;11.10;99.90;;;;;;4974575;28;20479;-68
2024/03/15 03:39:56;;;;;;;4.30;2.73;;;11.20;99.90;;;;;;4974524;28;20501;-69
2024/03/15 03:42:22;;;;;;;8.13;2.87;;;11.20;99.90;;;;;;4974164;28;20827;-69
2024/03/15 03:44:49;;;;;;;5.83;2.97;;;11.30;99.90;;;;;;4974727;28;20196;-69
2024/03/15 03:47:15;;;;;;;4.30;2.80;;;11.30;99.90;;;;;;4976758;28;20473;-68
2024/03/15 03:49:41;;;;;;;3.57;2.87;;;11.30;99.90;;;;;;4978500;28;20415;-68
2024/03/15 03:52:07;;;;;;;2.80;2.47;;;11.40;99.90;;;;;;4978299;28;20720;-67
2024/03/15 03:54:33;;;;;;;3.90;2.80;;;11.30;99.90;;;;;;4978688;28;20190;-69
2024/03/15 03:56:59;;;;;;;4.30;3.07;;;11.40;99.90;;;;;;4978177;28;20443;-69
2024/03/15 03:59:28;;;;;;;7.10;3.43;;;11.40;99.90;;;;;;4978167;28;20457;-69
2024/03/15 04:01:54;;;;;;;5.73;2.93;;;11.50;99.90;;;;;;4977763;28;20485;-69
2024/03/15 04:04:21;;;;;;;5.17;3.87;;;11.50;99.90;;;;;;4974767;28;20437;-68
2024/03/15 04:06:49;;;;;;;3.70;2.97;;;11.60;99.90;;;;;;4978210;28;20287;-68
2024/03/15 04:09:16;;;;;;;5.00;3.40;;;11.60;99.90;;;;;;4978010;28;20507;-70
2024/03/15 04:11:42;;;;;;;4.27;2.90;;;11.60;99.90;;;;;;4977494;28;20686;-68
2024/03/15 04:14:08;;;;;;;4.03;3.20;;;11.60;99.90;;;;;;4977317;28;20418;-68
2024/03/15 04:16:34;;;;;;;4.90;3.27;;;11.70;99.90;;;;;;4977500;28;20216;-67
2024/03/15 04:18:59;;;;;;;4.30;3.10;;;11.80;99.90;;;;;;4977580;28;20426;-69
2024/03/15 04:21:25;;;;;;;4.13;2.80;;;11.80;99.90;;;;;;4971404;28;20654;-68
2024/03/15 04:23:53;;;;;;;4.83;3.03;;;11.80;99.90;;;;;;4977735;28;20281;-68
2024/03/15 04:26:21;;;;;;;4.50;2.83;;;11.80;99.90;;;;;;4977956;28;20834;-68
2024/03/15 04:28:49;;;;;;;3.50;2.57;;;11.80;99.90;;;;;;4977791;28;20479;-68
2024/03/15 04:31:16;;;;;;;4.27;3.20;;;11.80;99.90;;;;;;4977472;28;20426;-68
2024/03/15 04:33:42;;;;;;;3.63;2.90;;;11.80;99.90;;;;;;4977025;28;20861;-68
2024/03/15 04:36:08;;;;;;;5.53;3.53;;;11.80;99.90;;;;;;4977162;28;20939;-68
2024/03/15 04:38:33;;;;;;;5.80;2.90;;;11.80;99.90;;;;;;4976659;28;20419;-67
2024/03/15 04:41:09;;;;;;;7.53;3.87;;;11.90;99.90;;;;;;4977875;28;20223;-69
2024/03/15 04:43:36;;;;;;;5.60;2.50;;;11.90;99.90;;;;;;4975972;28;20220;-69
2024/03/15 04:46:03;;;;;;;3.87;2.60;;;11.90;99.90;;;;;;4978470;28;20471;-69
2024/03/15 04:48:32;;;;;;;5.40;3.10;;;12.00;99.90;;;;;;4973934;28;20432;-68
2024/03/15 04:50:57;;;;;;;3.70;2.97;;;12.10;99.90;;;;;;4977020;28;20438;-69
2024/03/15 04:53:24;;;;;;;4.33;3.00;;;12.10;99.90;;;;;;4976902;28;20424;-68
2024/03/15 04:55:50;;;;;;;4.30;2.17;;;12.10;99.90;;;;;;4975024;28;20211;-68
2024/03/15 04:58:15;;;;;;;2.83;2.40;;;12.10;99.90;;;;;;4978928;28;20414;-71
2024/03/15 05:00:41;;;;;;;3.63;2.70;;;12.20;99.90;;;;;;4979823;28;20428;-70
2024/03/15 05:03:07;;;;;;;5.40;2.60;;;12.20;99.90;;;;;;4979256;28;20615;-68
2024/03/15 05:05:32;;;;;;;3.30;2.30;;;12.20;99.90;;;;;;4980205;28;20189;-69
2024/03/15 05:07:58;;;;;;;2.97;2.53;;;12.30;99.90;;;;;;4979580;28;20223;-71
2024/03/15 05:10:24;;;;;;;3.33;2.30;;;12.30;99.90;;;;;;4979840;28;20462;-70
2024/03/15 05:12:50;;;;;;;5.23;2.87;;;12.30;99.90;;;;;;4979392;28;20227;-71
2024/03/15 05:15:16;;;;;;;4.90;3.03;;;12.30;99.90;;;;;;4979868;28;20196;-70
2024/03/15 05:17:42;;;;;;;2.60;2.13;;;12.30;99.90;;;;;;4979524;28;20503;-69
2024/03/15 05:20:09;;;;;;;3.10;2.37;;;12.30;99.90;;;;;;4979333;28;20460;-69
2024/03/15 05:22:35;;;;;;;3.73;2.90;;;12.30;99.90;;;;;;4981458;28;20443;-72
2024/03/15 05:25:02;;;;;;;5.17;2.87;;;12.30;99.90;;;;;;4982490;28;20808;-70
2024/03/15 05:27:27;;;;;;;6.43;3.17;;;12.30;99.90;;;;;;4982523;28;20216;-69
2024/03/15 05:29:54;;;;;;;3.97;2.47;;;12.30;99.90;;;;;;4980522;28;20482;-70
2024/03/15 05:32:19;;;;;;;4.00;3.07;;;12.30;99.90;;;;;;4979758;28;20227;-71
2024/03/15 05:34:46;;;;;;;3.90;2.63;;;12.30;99.90;;;;;;4980744;28;20460;-69
2024/03/15 05:37:12;;;;;;;3.97;2.57;;;12.30;99.90;;;;;;4982489;28;20478;-69
2024/03/15 05:39:37;;;;;;;3.30;2.40;;;12.30;99.90;;;;;;4982500;28;20434;-70
2024/03/15 05:42:03;;;;;;;3.37;2.53;;;12.30;99.90;;;;;;4982045;28;20212;-71
2024/03/15 05:44:30;;;;;;;5.67;3.07;;;12.40;99.90;;;;;;4979028;28;20207;-70
2024/03/15 05:46:58;;;;;;;3.37;2.50;;;12.30;99.90;;;;;;4979986;28;20331;-70
2024/03/15 05:49:24;;;;;;;4.20;2.47;;;12.30;99.90;;;;;;4978652;28;20448;-71
2024/03/15 05:51:50;;;;;;;3.90;2.77;;;12.30;99.90;;;;;;4978846;28;20420;-74
2024/03/15 05:54:15;;;;;;;3.47;2.30;;;12.30;99.90;;;;;;4981394;28;20431;-71
2024/03/15 05:56:41;;;;;;;3.70;2.00;;;12.30;99.90;;;;;;4979658;28;20477;-70
2024/03/15 05:59:07;;;;;;;4.33;2.43;;;12.30;99.90;;;;;;4980899;28;20177;-69
2024/03/15 06:01:32;;;;;;;4.07;2.03;;;12.30;99.90;;;;;;4979440;28;20168;-70
2024/03/15 06:03:58;;;;;;;3.33;2.50;;;12.40;99.90;;;;;;4977985;28;20435;-70
2024/03/15 06:06:25;;;;;;;4.33;2.50;;;12.40;99.90;;;;;;4979084;28;20358;-70
2024/03/15 06:08:51;;;;;;;3.20;2.80;;;12.40;99.90;;;;;;4979642;28;20196;-71
2024/03/15 06:11:17;;;;;;;2.60;2.23;;;12.50;99.90;;;;;;4977713;28;20423;-71
2024/03/15 06:13:42;;;;;;;3.90;2.60;;;12.50;99.90;;;;;;4979877;28;20430;-70
2024/03/15 06:16:11;;;;;;;5.40;2.90;;;12.50;99.90;;;;;;4979865;28;20301;-73
2024/03/15 06:18:37;;;;;;;2.93;2.47;;;12.60;99.90;;;;;;4973507;28;20503;-72
2024/03/15 06:21:04;;;;;;;4.43;3.20;;;12.60;99.90;;;;;;4976461;28;20508;-70
2024/03/15 06:23:30;;;;;;;8.30;3.97;;;12.60;99.90;;;;;;4980868;28;20759;-72
2024/03/15 06:25:56;;;;;;;3.67;2.93;;;12.60;99.90;;;;;;4979539;28;20623;-71
2024/03/15 06:28:22;;;;;;;8.33;3.83;;;12.60;99.90;;;;;;4979239;28;20451;-71
2024/03/15 06:30:53;;;;;;;4.13;3.40;;;12.70;99.90;;;;;;4980038;28;20192;-72
2024/03/15 06:33:19;;;;;;;5.87;3.40;;;12.70;99.90;;;;;;4978370;28;20204;-73
2024/03/15 06:35:51;;;;;;;5.57;2.97;;;12.70;99.90;;;;;;4979489;28;20428;-71
2024/03/15 06:41:13;;;;;;;6.73;3.13;;;12.70;99.90;;;;;;4981565;28;20549;-74
2024/03/15 06:43:58;;;;;;;4.63;3.00;;;12.80;99.90;;;;;;4980431;28;20602;-73
2024/03/15 06:46:41;;;;;;;3.73;2.67;;;12.80;99.90;;;;;;4980402;28;20495;-73
2024/03/15 06:49:16;;;;;;;6.67;3.23;;;12.90;99.90;;;;;;4981450;28;20419;-74
2024/03/15 06:54:26;;;;;;;9.77;3.20;;;13.20;99.90;;;;;;4976412;28;20415;-73
2024/03/15 06:56:52;;;;;;;7.23;3.50;;;13.40;99.90;;;;;;4981165;28;20822;-74
2024/03/15 06:59:18;;;;;;;5.97;2.97;;;13.50;99.90;;;;;;4980208;28;20851;-71
2024/03/15 07:01:47;;;;;;;7.13;3.77;;;13.50;99.90;;;;;;4979027;28;20423;-71
2024/03/15 07:04:13;;;;;;;5.70;3.63;;;13.60;99.90;;;;;;4979461;28;20208;-73
2024/03/15 07:06:39;;;;;;;3.70;2.97;;;13.60;99.90;;;;;;4980198;28;20463;-71
2024/03/15 07:09:07;;;;;;;10.07;3.57;;;13.60;99.90;;;;;;4964094;28;20423;-73
2024/03/15 07:11:33;;;;;;;5.17;3.10;;;13.60;99.90;;;;;;4981477;28;20939;-73
2024/03/15 07:14:02;;;;;;;5.47;3.70;;;13.60;99.90;;;;;;4982012;28;20415;-73
2024/03/15 07:16:29;;;;;;;10.63;3.00;;;13.70;99.90;;;;;;4979172;28;20220;-72
2024/03/15 07:18:59;;;;;;;4.53;2.80;;;13.70;99.90;;;;;;4981331;28;20471;-75
2024/03/15 07:21:25;;;;;;;6.80;3.80;;;13.80;99.90;;;;;;4982317;28;20438;-72
2024/03/15 07:23:51;;;;;;;8.83;4.77;;;13.90;99.90;;;;;;4991695;28;20439;-73
2024/03/15 07:26:17;;;;;;;5.10;3.87;;;14.00;99.90;;;;;;4984619;28;20530;-75
2024/03/15 07:28:44;;;;;;;9.50;3.87;;;14.10;99.90;;;;;;4977941;28;20203;-73
2024/03/15 07:31:10;;;;;;;6.63;3.90;;;14.20;99.90;;;;;;4983500;28;20193;-72
2024/03/15 07:33:37;;;;;;;4.97;3.03;;;14.30;99.90;;;;;;4982079;28;20452;-73
2024/03/15 07:36:06;;;;;;;4.30;2.93;;;14.30;99.90;;;;;;4984889;28;20440;-74
2024/03/15 07:38:32;;;;;;;4.47;2.90;;;14.40;99.90;;;;;;4988671;28;20487;-75
2024/03/15 07:40:58;;;;;;;7.13;3.30;;;14.60;99.90;;;;;;4984669;28;20444;-74
2024/03/15 07:43:26;;;;;;;7.40;3.00;;;14.60;99.90;;;;;;4984215;28;20242;-74
2024/03/15 07:45:52;;;;;;;3.70;2.67;;;14.70;99.90;;;;;;4983707;28;20440;-73
2024/03/15 07:48:18;;;;;;;5.20;2.97;;;14.80;99.90;;;;;;4983960;28;20411;-71
2024/03/15 07:50:44;;;;;;;6.33;3.53;;;14.80;99.90;;;;;;4984332;28;20200;-73
2024/03/15 07:53:09;;;;;;;5.23;3.27;;;14.80;99.90;;;;;;4982785;28;20424;-76
2024/03/15 07:55:35;;;;;;;6.60;3.20;;;14.70;99.90;;;;;;4983784;28;20184;-74
2024/03/15 07:58:04;;;;;;;5.63;3.30;;;14.60;99.90;;;;;;4983930;28;20196;-75
2024/03/15 08:00:31;;;;;;;4.80;2.87;;;14.60;99.90;;;;;;4983664;28;20408;-76
2024/03/15 08:02:57;;;;;;;5.30;3.50;;;14.60;99.90;;;;;;4985100;28;20419;-75
2024/03/15 08:05:27;;;;;;;5.10;3.03;;;14.60;99.90;;;;;;4992284;28;20439;-72
2024/03/15 08:07:53;;;;;;;5.90;2.70;;;14.70;99.90;;;;;;4986183;28;20287;-73
2024/03/15 08:10:20;;;;;;;3.60;2.50;;;14.70;99.90;;;;;;4985065;28;20423;-73
2024/03/15 08:12:46;;;;;;;8.03;3.40;;;14.70;99.90;;;;;;4984939;28;20420;-72
2024/03/15 08:15:13;;;;;;;4.20;2.87;;;14.70;99.90;;;;;;4985091;28;20424;-75
2024/03/15 08:17:40;;;;;;;5.30;3.00;;;14.70;99.90;;;;;;4984376;28;20478;-77
2024/03/15 08:20:08;;;;;;;8.03;4.13;;;14.70;99.90;;;;;;4977355;28;20512;-73
2024/03/15 08:22:36;;;;;;;5.47;3.40;;;14.80;99.90;;;;;;4987747;28;20431;-74
2024/03/15 08:25:11;;;;;;;3.73;2.57;;;14.90;99.90;;;;;;4982995;28;20439;-72
2024/03/15 08:27:39;;;;;;;4.47;3.40;;;14.90;99.90;;;;;;4985456;28;20556;-74
2024/03/15 08:30:06;;;;;;;4.30;3.07;;;14.90;99.90;;;;;;4989477;28;20841;-74
2024/03/15 08:32:32;;;;;;;3.50;2.53;;;14.90;99.90;;;;;;4969843;28;20435;-73
2024/03/15 08:34:57;;;;;;;4.40;3.17;;;14.90;99.90;;;;;;4988151;28;20421;-74
2024/03/15 08:37:24;;;;;;;4.90;2.57;;;15.00;99.90;;;;;;4986165;28;20506;-73
2024/03/15 08:39:50;;;;;;;4.43;2.20;;;15.00;99.90;;;;;;4984969;28;20233;-73
2024/03/15 08:42:16;;;;;;;5.47;2.80;;;14.90;99.90;;;;;;4991574;28;20471;-74
2024/03/15 08:44:42;;;;;;;4.83;2.80;;;14.80;99.90;;;;;;4968201;28;20428;-72
2024/03/15 08:47:08;;;;;;;5.80;3.90;;;14.80;99.90;;;;;;4986303;28;20463;-75
2024/03/15 08:49:35;;;;;;;7.40;3.53;;;14.80;99.90;;;;;;4989256;28;20529;-72
2024/03/15 08:52:01;;;;;;;4.10;3.30;;;14.90;99.90;;;;;;4986779;28;20203;-76
2024/03/15 08:54:27;;;;;;;7.13;3.43;;;15.00;99.90;;;;;;4985126;28;20419;-75
2024/03/15 08:56:53;;;;;;;5.47;2.80;;;15.20;99.90;;;;;;4984923;28;20470;-74
2024/03/15 08:59:18;;;;;;;7.93;3.20;;;15.40;99.90;;;;;;4985068;28;20439;-72
2024/03/15 09:01:44;;;;;;;7.13;3.77;;;15.60;99.90;;;;;;4986342;28;20268;-75
2024/03/15 09:04:11;;;;;;;4.13;3.47;;;15.90;99.90;;;;;;4990327;28;20204;-79
2024/03/15 09:06:37;;;;;;;4.10;2.70;;;16.10;99.90;;;;;;4974374;28;20303;-77
2024/03/15 09:09:17;;;;;;;6.23;2.90;;;16.20;99.90;;;;;;4974636;28;20424;-78
2024/03/15 09:11:43;;;;;;;4.83;2.83;;;16.40;99.90;;;;;;4972570;28;20427;-75
2024/03/15 09:14:10;;;;;;;3.33;2.50;;;16.40;99.90;;;;;;4989585;28;20462;-75
2024/03/15 09:16:37;;;;;;;10.30;4.40;;;16.50;99.90;;;;;;4990221;28;20439;-76
2024/03/15 09:19:05;;;;;;;7.90;3.10;;;16.50;99.90;;;;;;5001522;28;20422;-77
2024/03/15 09:21:32;;;;;;;5.30;2.90;;;16.50;99.90;;;;;;4976308;28;20455;-77
2024/03/15 09:24:00;;;;;;;4.80;3.20;;;16.50;99.90;;;;;;4975665;28;20434;-80
2024/03/15 09:26:28;;;;;;;4.63;3.10;;;16.60;99.90;;;;;;4975336;28;20510;-77
2024/03/15 09:28:57;;;;;;;3.73;2.30;;;16.50;99.90;;;;;;4991820;28;20430;-76
2024/03/15 09:31:24;;;;;;;3.47;2.50;;;16.60;99.90;;;;;;4994346;28;20203;-79
2024/03/15 09:33:54;;;;;;;5.10;2.70;;;16.60;99.90;;;;;;4971967;29;20421;-77
2024/03/15 09:36:21;;;;;;;3.50;2.80;;;16.70;99.90;;;;;;4993292;28;20450;-77
2024/03/15 09:38:47;;;;;;;3.43;1.57;;;16.80;99.90;;;;;;4999035;28;20423;-77
2024/03/15 09:41:16;;;;;;;2.87;2.03;;;16.90;99.90;;;;;;4988705;28;20408;-75
2024/03/15 09:43:45;;;;;;;3.50;2.50;;;17.00;99.90;;;;;;4985517;28;20471;-77
2024/03/15 09:46:18;;;;;;;5.50;3.00;;;17.10;99.90;;;;;;4985451;28;20508;-75
2024/03/15 09:48:45;;;;;;;4.90;3.33;;;17.00;99.90;;;;;;5003787;28;20431;-73
2024/03/15 09:51:14;;;;;;;3.67;2.20;;;17.00;99.90;;;;;;4988191;28;20486;-76
2024/03/15 09:53:41;;;;;;;3.70;2.67;;;16.90;99.90;;;;;;4969547;28;20537;-76
2024/03/15 09:56:19;;;;;;;4.17;2.03;;;17.00;99.90;;;;;;4970215;28;20841;-75
2024/03/15 09:58:50;;;;;;;5.60;3.00;;;17.00;99.90;;;;;;4967206;29;20177;-76
2024/03/15 10:01:16;;;;;;;4.40;2.80;;;17.00;99.90;;;;;;4986692;28;20871;-76
2024/03/15 10:03:48;;;;;;;4.70;2.20;;;17.10;99.90;;;;;;4983065;28;20432;-76
2024/03/15 10:06:21;;;;;;;4.10;1.90;;;17.20;99.90;;;;;;4978152;28;20247;-74
2024/03/15 10:08:48;;;;;;;3.63;1.97;;;17.30;99.90;;;;;;4959383;28;20830;-75
2024/03/15 10:11:14;;;;;;;2.97;1.50;;;17.40;99.90;;;;;;4986003;28;20434;-75
2024/03/15 10:13:40;;;;;;;3.43;2.20;;;17.40;99.90;;;;;;4987561;28;20415;-76
2024/03/15 10:16:08;;;;;;;4.07;2.20;;;17.50;99.90;;;;;;4987224;28;20511;-74
2024/03/15 10:18:39;;;;;;;3.93;2.40;;;17.50;99.90;;;;;;4987674;28;20222;-76
2024/03/15 10:21:05;;;;;;;3.70;2.00;;;17.60;99.90;;;;;;4988811;28;20428;-76
2024/03/15 10:23:31;;;;;;;3.07;1.70;;;17.60;99.20;;;;;;4989217;28;20430;-74
2024/03/15 10:25:58;;;;;;;2.70;1.50;;;17.60;98.70;;;;;;4986111;28;20212;-77
2024/03/15 10:28:24;;;;;;;2.33;1.30;;;17.60;98.80;;;;;;5018642;28;20431;-77
2024/03/15 10:30:49;;;;;;;2.47;1.50;;;17.70;98.90;;;;;;4985328;28;20432;-75
2024/03/15 10:33:16;;;;;;;3.00;2.23;;;17.90;98.80;;;;;;4983148;28;20872;-75
2024/03/15 10:35:42;;;;;;;2.90;1.77;;;18.00;98.50;;;;;;4982898;28;20203;-74
2024/03/15 10:38:14;;;;;;;3.33;1.80;;;18.10;97.60;;;;;;4983373;28;20402;-77
2024/03/15 10:40:40;;;;;;;3.37;1.77;;;18.30;95.40;;;;;;4981248;28;20183;-76
2024/03/15 10:43:11;;;;;;;2.80;1.80;;;18.30;94.80;;;;;;4984839;28;20478;-76
2024/03/15 10:45:37;;;;;;;3.67;1.70;;;18.40;94.20;;;;;;4986770;28;20432;-77
2024/03/15 10:48:08;;;;;;;2.07;1.83;;;18.50;93.90;;;;;;4983267;28;20475;-75
2024/03/15 10:50:37;;;;;;;2.97;1.53;;;18.50;93.80;;;;;;4983421;28;20400;-74
2024/03/15 10:53:09;;;;;;;2.50;1.70;;;18.60;93.50;;;;;;4958360;29;20515;-75
2024/03/15 10:55:34;;;;;;;2.90;1.73;;;18.60;93.50;;;;;;4983500;28;20416;-76
2024/03/15 10:58:06;;;;;;;1.60;1.20;;;18.70;93.60;;;;;;4983252;28;20719;-74
2024/03/15 11:00:32;;;;;;;2.50;1.13;;;18.80;92.80;;;;;;4983323;28;20233;-75
2024/03/15 11:03:30;;;;;;;1.70;1.30;;;18.80;92.10;;;;;;4987334;28;20420;-76
2024/03/15 11:05:59;;;;;;;1.87;1.20;;;18.90;91.10;;;;;;4985364;28;20215;-75
2024/03/15 11:08:25;;;;;;;2.40;1.30;;;18.70;90.80;;;;;;4984443;28;20435;-77
2024/03/15 11:10:55;;;;;;;2.30;1.10;;;18.50;90.90;;;;;;4986310;28;20470;-75
2024/03/15 11:13:25;;;;;;;2.77;1.50;;;18.30;91.70;;;;;;4997030;28;20184;-76
2024/03/15 11:15:52;;;;;;;2.70;1.40;;;18.20;91.60;;;;;;4987671;28;20456;-75
2024/03/15 11:18:18;;;;;;;2.17;1.33;;;18.00;91.70;;;;;;4982682;28;20707;-77
2024/03/15 11:20:45;;;;;;;1.80;1.20;;;17.90;91.60;;;;;;4979597;28;20415;-77
2024/03/15 11:23:11;;;;;;;2.23;1.43;;;17.80;91.70;;;;;;4985988;28;20415;-76
2024/03/15 11:25:38;;;;;;;2.70;1.20;;;17.70;92.10;;;;;;4979742;28;20478;-76
2024/03/15 11:28:04;;;;;;;2.00;1.10;;;17.40;93.20;;;;;;4985010;28;20462;-75
2024/03/15 11:30:31;;;;;;;2.60;1.47;;;17.10;94.60;;;;;;4985168;28;20416;-75
2024/03/15 11:32:57;;;;;;;2.30;1.47;;;16.80;95.30;;;;;;4986636;28;20234;-77
2024/03/15 11:35:23;;;;;;;2.40;1.57;;;16.60;96.70;;;;;;4986799;28;20436;-75
2024/03/15 11:37:55;;;;;;;2.90;1.47;;;16.40;98.90;;;;;;4987776;28;20445;-74
2024/03/15 11:40:27;;;;;;;2.70;1.80;;;16.10;99.70;;;;;;4989664;28;20208;-76
2024/03/15 11:42:53;;;;;;;3.23;1.73;;;15.90;99.90;;;;;;4988645;28;20482;-75
2024/03/15 11:45:18;;;;;;;2.70;1.80;;;15.60;99.90;;;;;;4969417;28;20437;-75
2024/03/15 11:47:44;;;;;;;3.77;1.97;;;15.50;99.90;;;;;;4985927;28;20516;-77
2024/03/15 11:50:14;;;;;;;2.50;1.43;;;15.70;99.90;;;;;;4984218;28;20575;-74
2024/03/15 11:52:40;;;;;;;2.73;1.70;;;15.90;99.90;;;;;;4985237;28;20186;-74
2024/03/15 11:55:11;;;;;;;2.93;2.30;;;16.00;99.90;;;;;;4968676;28;20429;-76
2024/03/15 11:57:39;;;;;;;2.73;2.20;;;16.00;99.90;;;;;;4983422;28;20452;-74
2024/03/15 12:00:17;;;;;;;2.70;1.83;;;16.10;99.90;;;;;;4970821;28;20432;-74
2024/03/15 12:02:43;;;;;;;2.30;1.67;;;16.20;99.90;;;;;;4954380;28;20437;-77
2024/03/15 12:05:12;;;;;;;3.03;1.20;;;16.30;99.90;;;;;;4985456;28;20443;-76
2024/03/15 12:07:38;;;;;;;2.67;1.87;;;16.50;99.90;;;;;;4978361;28;20234;-74
2024/03/15 12:10:11;;;;;;;1.93;1.37;;;16.80;99.90;;;;;;4988483;28;20418;-76
2024/03/15 12:12:37;;;;;;;2.00;1.40;;;17.10;99.90;;;;;;4971833;28;20726;-76
2024/03/15 12:15:03;;;;;;;1.80;1.27;;;17.20;99.90;;;;;;4979831;28;20450;-77
2024/03/15 12:17:29;;;;;;;2.17;1.40;;;17.30;99.90;;;;;;5000153;28;20463;-77
2024/03/15 12:19:56;;;;;;;2.40;1.57;;;17.30;99.90;;;;;;4990332;28;20515;-78
2024/03/15 12:22:24;;;;;;;2.00;1.40;;;17.30;99.90;;;;;;4992535;28;20427;-76
2024/03/15 12:24:51;;;;;;;2.50;1.60;;;17.30;99.90;;;;;;4975146;28;20424;-77
2024/03/15 12:27:17;;;;;;;1.87;1.37;;;17.40;99.90;;;;;;4970681;28;20499;-77
2024/03/15 12:29:42;;;;;;;4.93;2.57;;;17.40;99.90;;;;;;4974383;28;20479;-77
2024/03/15 12:32:08;;;;;;;2.50;1.83;;;17.50;99.90;;;;;;4968739;29;20177;-75
2024/03/15 12:34:34;;;;;;;2.40;1.73;;;17.60;99.90;;;;;;4986095;28;20246;-77
2024/03/15 12:37:00;;;;;;;2.80;2.20;;;17.80;99.90;;;;;;4986266;28;20216;-77
2024/03/15 12:39:25;;;;;;;2.70;2.37;;;18.00;99.40;;;;;;4991994;28;20195;-78
2024/03/15 12:41:55;;;;;;;3.23;1.30;;;18.10;98.20;;;;;;4986009;28;20224;-75
2024/03/15 12:44:21;;;;;;;2.60;1.67;;;18.40;96.30;;;;;;4974678;28;20203;-77
2024/03/15 12:46:47;;;;;;;2.40;1.40;;;18.50;94.80;;;;;;4975031;28;20495;-78
2024/03/15 12:49:13;;;;;;;2.83;1.67;;;18.60;93.70;;;;;;4973142;28;20421;-77
2024/03/15 12:51:38;;;;;;;2.23;1.40;;;18.50;91.80;;;;;;4986079;28;20211;-75